createdAt,value
2022-11-14T00:00:22.409Z,61.9
2022-11-14T00:05:57.652Z,62.1
2022-11-14T00:11:33.119Z,62.4
2022-11-14T00:17:09.743Z,62.4
2022-11-14T00:22:44.887Z,62.4
2022-11-14T00:28:21.404Z,62.5
2022-11-14T00:33:56.744Z,62.5
2022-11-14T00:39:31.645Z,62.7
2022-11-14T00:45:07.052Z,62.7
2022-11-14T00:50:42.429Z,62.6
2022-11-14T00:56:17.361Z,62.7
2022-11-14T01:01:58.257Z,62.9
2022-11-14T01:07:33.857Z,62.7
2022-11-14T01:13:08.867Z,62.5
2022-11-14T01:18:44.472Z,62.6
2022-11-14T01:24:19.691Z,62.3
2022-11-14T01:29:55.267Z,61.9
2022-11-14T01:35:30.619Z,62.4
2022-11-14T01:41:06.049Z,62.1
2022-11-14T01:47:03.127Z,62.4
2022-11-14T01:52:36.530Z,62.6
2022-11-14T01:58:12.524Z,62.1
2022-11-14T02:03:47.564Z,62.1
2022-11-14T02:09:23.243Z,62.5
2022-11-14T02:14:59.228Z,62.7
2022-11-14T02:20:34.443Z,62.6
2022-11-14T02:26:10.290Z,62.1
2022-11-14T02:31:46.563Z,61.1
2022-11-14T02:37:21.332Z,60.5
2022-11-14T02:42:56.983Z,59.8
2022-11-14T02:48:54.261Z,61.2
2022-11-14T02:54:26.960Z,62
2022-11-14T03:00:02.547Z,61.2
2022-11-14T03:05:37.900Z,61.5
2022-11-14T03:11:14.105Z,61.8
2022-11-14T03:16:49.848Z,61.9
2022-11-14T03:22:24.923Z,62.2
2022-11-14T03:27:59.855Z,62.6
2022-11-14T03:33:36.171Z,62.8
2022-11-14T03:39:16.487Z,63.1
2022-11-14T03:44:51.664Z,63.2
2022-11-14T03:50:27.226Z,63.1
2022-11-14T03:56:02.643Z,63.1
2022-11-14T04:01:38.811Z,62.6
2022-11-14T04:07:14.298Z,62.8
2022-11-14T04:12:50.890Z,63.1
2022-11-14T04:18:27.403Z,63.5
2022-11-14T04:24:11.432Z,63.5
2022-11-14T04:29:47.134Z,63.2
2022-11-14T04:35:22.035Z,62.9
2022-11-14T04:40:57.780Z,61.5
2022-11-14T04:46:54.832Z,61.1
2022-11-14T04:52:27.964Z,61.7
2022-11-14T04:58:03.127Z,62.1
2022-11-14T05:03:38.371Z,62.4
2022-11-14T05:09:13.107Z,62.5
2022-11-14T05:14:49.005Z,62.7
2022-11-14T05:20:23.863Z,62.9
2022-11-14T05:25:59.303Z,63.1
2022-11-14T05:31:34.387Z,63
2022-11-14T05:37:09.638Z,62.9
2022-11-14T05:42:45.726Z,63.6
2022-11-14T05:48:42.772Z,63.5
2022-11-14T05:54:15.543Z,64.5
2022-11-14T05:59:50.616Z,65.3
2022-11-14T06:05:25.568Z,65.6
2022-11-14T06:11:01.421Z,65.6
2022-11-14T06:16:36.306Z,65.5
2022-11-14T06:22:11.279Z,65.7
2022-11-14T06:27:45.929Z,66.5
2022-11-14T06:33:20.696Z,66.5
2022-11-14T06:38:55.729Z,65.9
2022-11-14T06:44:31.749Z,64.6
2022-11-14T06:50:06.698Z,64.3
2022-11-14T06:55:41.656Z,65.2
2022-11-14T07:01:16.618Z,66.5
2022-11-14T07:06:52.400Z,67.1
2022-11-14T07:12:29.244Z,67
2022-11-14T07:18:04.131Z,68
2022-11-14T07:24:00.266Z,68.3
2022-11-14T07:29:35.458Z,69.5
2022-11-14T07:35:11.859Z,68.9
2022-11-14T07:40:48.206Z,72
2022-11-14T07:46:26.315Z,71.5
2022-11-14T07:52:09.867Z,74.3
2022-11-14T07:57:49.869Z,76.3
2022-11-14T08:03:27.542Z,76.2
2022-11-14T08:09:04.513Z,76.6
2022-11-14T08:14:40.648Z,75.2
2022-11-14T08:20:16.345Z,77.4
2022-11-14T08:25:52.188Z,78.3
2022-11-14T08:31:27.026Z,77
2022-11-14T08:37:03.118Z,79.1
2022-11-14T08:42:38.272Z,82.4
2022-11-14T08:48:21.768Z,81.3
2022-11-14T08:53:57.448Z,81.2
2022-11-14T08:59:32.736Z,79.6
2022-11-14T09:05:18.850Z,79.7
2022-11-14T09:10:54.840Z,79.4
2022-11-14T09:16:30.378Z,78.7
2022-11-14T09:22:05.748Z,78.2
2022-11-14T09:27:40.961Z,77.1
2022-11-14T09:33:24.900Z,77.5
2022-11-14T09:39:02.073Z,78.8
2022-11-14T09:44:37.208Z,77.8
2022-11-14T09:50:12.285Z,75.9
2022-11-14T09:55:47.221Z,76.6
2022-11-14T10:01:22.035Z,73.8
2022-11-14T10:06:57.424Z,78.3
2022-11-14T10:12:32.967Z,76.4
2022-11-14T10:18:08.208Z,79.1
2022-11-14T10:23:44.413Z,80.2
2022-11-14T10:29:20.843Z,79.9
2022-11-14T10:34:55.686Z,80
2022-11-14T10:40:32.612Z,79.5
2022-11-14T10:46:31.406Z,80.7
2022-11-14T10:52:11.961Z,81.1
2022-11-14T10:57:47.734Z,81.9
2022-11-14T11:03:23.149Z,82.8
2022-11-14T11:08:58.572Z,82.9
2022-11-14T11:14:34.872Z,81.5
2022-11-14T11:20:10.627Z,80.7
2022-11-14T11:25:45.627Z,81.7
2022-11-14T11:31:20.894Z,82.5
2022-11-14T11:36:55.762Z,83.4
2022-11-14T11:43:39.438Z,83.2
2022-11-14T11:49:54.846Z,83.6
2022-11-14T11:55:29.974Z,84
2022-11-14T12:01:07.295Z,84.2
2022-11-14T12:06:42.343Z,84.4
2022-11-14T12:12:17.659Z,83.9
2022-11-14T12:18:00.180Z,83.3
2022-11-14T12:23:35.039Z,83.5
2022-11-14T12:29:10.128Z,81.3
2022-11-14T12:34:45.057Z,81.4
2022-11-14T12:40:20.953Z,81.1
2022-11-14T12:45:56.857Z,81
2022-11-14T12:51:31.832Z,79.4
2022-11-14T12:57:09.398Z,80
2022-11-14T13:02:44.458Z,80.4
2022-11-14T13:08:19.757Z,81.2
2022-11-14T13:13:54.902Z,80.1
2022-11-14T13:19:34.631Z,81.1
2022-11-14T13:25:09.838Z,80.3
2022-11-14T13:30:45.094Z,80.3
2022-11-14T13:36:42.760Z,80.2
2022-11-14T13:42:23.127Z,79.3
2022-11-14T13:48:15.097Z,78.1
2022-11-14T13:53:50.083Z,80.3
2022-11-14T13:59:26.114Z,81.7
2022-11-14T14:05:01.143Z,81.6
2022-11-14T14:10:36.222Z,81.2
2022-11-14T14:16:11.408Z,80.7
2022-11-14T14:21:46.409Z,79.8
2022-11-14T14:27:21.157Z,77.8
2022-11-14T14:32:56.012Z,77.5
2022-11-14T14:38:32.418Z,75.7
2022-11-14T14:44:20.218Z,75.3
2022-11-14T14:50:16.809Z,77.1
2022-11-14T14:55:51.770Z,77.3
2022-11-14T15:01:27.852Z,77.1
2022-11-14T15:07:03.975Z,79.6
2022-11-14T15:12:39.853Z,78.4
2022-11-14T15:18:14.769Z,79.2
2022-11-14T15:23:50.552Z,80.1
2022-11-14T15:29:25.480Z,78.3
2022-11-14T15:35:00.557Z,80.1
2022-11-14T15:40:39.771Z,81
2022-11-14T15:46:20.488Z,82.1
2022-11-14T15:51:57.409Z,82.1
2022-11-14T15:57:39.610Z,81.6
2022-11-14T16:03:15.994Z,83.1
2022-11-14T16:08:50.822Z,83.6
2022-11-14T16:14:25.883Z,84.5
2022-11-14T16:20:01.648Z,85
2022-11-14T16:25:37.197Z,84.6
2022-11-14T16:31:12.691Z,84.6
2022-11-14T16:36:47.603Z,84.7
2022-11-14T16:42:23.775Z,85.3
2022-11-14T16:47:59.303Z,86.1
2022-11-14T16:53:34.326Z,85.8
2022-11-14T16:59:09.453Z,86.1
2022-11-14T17:04:44.432Z,86.5
2022-11-14T17:10:19.506Z,86.4
2022-11-14T17:15:54.386Z,86.8
2022-11-14T17:21:30.245Z,87
2022-11-14T17:27:09.993Z,87.2
2022-11-14T17:33:09.602Z,86.9
2022-11-14T17:38:48.283Z,86.9
2022-11-14T17:44:27.995Z,86.7
2022-11-14T17:50:04.450Z,87
2022-11-14T17:55:39.246Z,86.4
2022-11-14T18:01:41.884Z,86.4
2022-11-14T18:07:18.762Z,86.9
2022-11-14T18:12:54.470Z,86.9
2022-11-14T18:18:30.161Z,86.7
2022-11-14T18:24:14.046Z,86.4
2022-11-14T18:29:49.768Z,86.4
2022-11-14T18:35:24.856Z,87
2022-11-14T18:41:08.613Z,86.6
2022-11-14T18:46:44.418Z,87.3
2022-11-14T18:52:19.530Z,87.4
2022-11-14T18:57:54.385Z,87.6
2022-11-14T19:03:30.259Z,88
2022-11-14T19:09:11.940Z,88
2022-11-14T19:14:46.753Z,88.1
2022-11-14T19:20:21.754Z,88.2
2022-11-14T19:25:56.722Z,88.3
2022-11-14T19:31:32.419Z,88.6
2022-11-14T19:37:07.319Z,89.1
2022-11-14T19:42:42.514Z,88.5
2022-11-14T19:48:17.488Z,85.7
2022-11-14T19:53:52.477Z,84.6
2022-11-14T19:59:36.289Z,84.1
2022-11-14T20:05:23.409Z,83.8
2022-11-14T20:10:59.260Z,83.6
2022-11-14T20:16:37.206Z,83.4
2022-11-14T20:22:12.025Z,83.2
2022-11-14T20:27:47.151Z,83.1
2022-11-14T20:33:22.311Z,82.9
2022-11-14T20:38:59.569Z,82.9
2022-11-14T20:44:34.416Z,82.7
2022-11-14T20:50:15.168Z,82.5
2022-11-14T20:55:52.467Z,82.4
2022-11-14T21:01:44.294Z,82.3
2022-11-14T21:07:32.769Z,82.2
2022-11-14T21:13:12.370Z,82.1
2022-11-14T21:18:55.461Z,82
2022-11-14T21:24:44.851Z,82
2022-11-14T21:30:20.737Z,81.9
2022-11-14T21:35:57.578Z,81.9
2022-11-14T21:42:22.188Z,81.9
2022-11-14T21:47:57.228Z,81.8
2022-11-14T21:53:33.454Z,81.8
2022-11-14T21:59:09.659Z,81.8
2022-11-14T22:04:44.387Z,81.7
2022-11-14T22:10:19.282Z,81.7
2022-11-14T22:15:55.601Z,81.7
2022-11-14T22:21:30.589Z,81.7
2022-11-14T22:27:05.885Z,81.8
2022-11-14T22:32:43.595Z,81.9
2022-11-14T22:38:18.396Z,81.8
2022-11-14T22:43:53.654Z,81.7
2022-11-14T22:49:33.959Z,81.7
2022-11-14T22:55:17.982Z,81.6
2022-11-14T23:00:53.613Z,81.6
2022-11-14T23:06:33.775Z,81.4
2022-11-14T23:12:08.538Z,81.4
2022-11-14T23:17:44.603Z,81.5
2022-11-14T23:23:19.385Z,81.3
2022-11-14T23:28:54.292Z,81.3
2022-11-14T23:34:32.059Z,81.3
2022-11-14T23:40:06.911Z,81.2
2022-11-14T23:45:41.741Z,81.1
2022-11-14T23:51:16.551Z,81.1
2022-11-14T23:56:52.445Z,81.1
